Terminal Aerodrome Forecast
Issued by NWS

Current Version | Previous Version | Graphics & Text | Print | Product List | Glossary On
Versions: 1 2 3 4 5 6 7 8 9 10 11 12 13 14 15 16
000
FTUS41 KPBZ 212300
TAFHLG
TAF
KHLG 212320Z 2200/2224 24010KT P6SM BKN150
     FM221000 22008KT 6SM -SHRA BKN035
     FM221200 25010KT 5SM -SHRA BKN015
     FM221600 30012G20KT P6SM BKN030
     FM222000 30012KT P6SM BKN040=

USA.gov is the U.S. government's official web portal to all federal, state and local government web resources and services.